Califon, NJ (07830)

6:53 PM EDT on September 30, 2014 (GMT -0400)
Middle Valley | Change Station
CLOSE
Current Station
Personal Weather Station
Location: Washington Twp Morris County, NJ
Elevation: 154 m
Nearby Weather Stations

Elev 154 m 40.74 °N, 74.82 °W | Updated 29 seconds ago

Partly Cloudy
Partly Cloudy
18.2 °C
Feels Like 18.2 °C
N
0.0
Wind Variable Wind from West
Gusts 3.2 km/h

Today
High -- | Low -- °C
--% Chance of Precip.
Yesterday
High -- | Low -- °C
Precip. -- mm
6:54 AM 6:42 PM
Waxing Crescent, 41% visible
Pressure 1013 hPa
Visibility 16.1 kilometers
Clouds Mostly Cloudy 2438 m
Dew Point 15 °C
Humidity 83%
Rainfall 0 mm
Snow Depth Not available.
UV 0 out of 12
Pollen 1.90 out of 12
Air Quality Not available.
Flu Activity Not available.
METAR KSMQ 302153Z AUTO VRB03KT 10SM BKN080 20/14 A2991 RMK AO2 SLP128 T02000139

More Conditions Fewer Conditions

Pressure 1013 hPa
Visibility 16.1 kilometers
Clouds Mostly Cloudy 2438 m
Dew Point 15 °C
Humidity 83%
Rainfall 0 mm
Snow Depth Not available.
UV 0 out of 12
Pollen 1.90 out of 12
Air Quality Not available.
Flu Activity Not available.
METAR KSMQ 302153Z AUTO VRB03KT 10SM BKN080 20/14 A2991 RMK AO2 SLP128 T02000139

More Conditions Fewer Conditions

10-Day Weather Forecast

Almanac

Astronomy

Sep. 30, 2014 Rise Set
Actual Time 6:54 AM EDT 6:42 PM EDT
Civil Twilight 6:27 AM EDT 7:10 PM EDT
Nautical Twilight 5:55 AM EDT 7:41 PM EDT
Astronomical Twilight 5:23 AM EDT 8:13 PM EDT
Moon 1:02 PM EDT 11:09 PM EDT
Length of Visible Light 12h 42m
Length of Day
11h 48m
Tomorrow will be 2m 41s shorter.
Waxing Crescent, 41% of the Moon is Illuminated
Today
Waxing Crescent
Oct 1
First Quarter
Oct 8
Full
Oct 15
Last Quarter
Oct 23
New

Today's Extremes

State Highs State Lows

Community

WunderPhotos

Upload Photos

1,757,767 photos uploaded!

Nearby

Snow Depth

Station Depth Elevation
No new snow has been reported.

Earthquake Activity

City Distance Mag. Time & Date
No recent earthquake activity has been reported nearby.
Minimum magnitude displayed is 2.5.

Coastal Water Temperatures

Place Temperature
No Stations Reporting

Nearby Weather Stations